createdAt,value
2022-11-13T00:00:10.041Z,40.50
2022-11-13T00:02:36.539Z,36.03
2022-11-13T00:05:03.203Z,39.28
2022-11-13T00:07:29.720Z,37.40
2022-11-13T00:09:56.240Z,39.75
2022-11-13T00:12:22.698Z,38.22
2022-11-13T00:14:49.110Z,40.80
2022-11-13T00:17:15.548Z,38.92
2022-11-13T00:19:41.935Z,39.58
2022-11-13T00:22:08.364Z,38.83
2022-11-13T00:24:34.777Z,34.65
2022-11-13T00:27:01.175Z,38.95
2022-11-13T00:29:27.630Z,36.42
2022-11-13T00:31:54.112Z,39.10
2022-11-13T00:34:45.790Z,39.00
2022-11-13T00:37:06.992Z,35.55
2022-11-13T00:39:33.386Z,36.72
2022-11-13T00:41:59.787Z,33.35
2022-11-13T00:44:26.282Z,33.90
2022-11-13T00:46:52.774Z,32.47
2022-11-13T00:49:19.199Z,32.25
2022-11-13T00:51:45.683Z,33.30
2022-11-13T00:54:12.106Z,32.00
2022-11-13T00:56:38.556Z,33.47
2022-11-13T00:59:05.000Z,32.53
2022-11-13T01:01:31.464Z,32.25
2022-11-13T01:03:57.976Z,31.95
2022-11-13T01:06:27.747Z,33.17
2022-11-13T01:08:55.894Z,35.38
2022-11-13T01:11:25.702Z,35.15
2022-11-13T01:13:53.060Z,42.60
2022-11-13T01:16:23.344Z,45.65
2022-11-13T01:18:50.279Z,48.25
2022-11-13T01:21:24.542Z,36.47
2022-11-13T01:23:51.013Z,38.60
2022-11-13T01:26:23.688Z,31.20
2022-11-13T01:28:50.580Z,30.02
2022-11-13T01:31:21.091Z,32.55
2022-11-13T01:33:48.814Z,31.20
2022-11-13T01:36:18.067Z,34.55
2022-11-13T01:38:45.175Z,35.42
2022-11-13T01:41:23.778Z,34.05
2022-11-13T01:43:51.740Z,32.38
2022-11-13T01:46:38.968Z,30.90
2022-11-13T01:49:08.414Z,29.75
2022-11-13T01:51:57.275Z,68.00
2022-11-13T01:54:31.623Z,37.83
2022-11-13T01:56:58.940Z,35.13
2022-11-13T01:59:32.796Z,29.70
2022-11-13T02:01:59.576Z,34.45
2022-11-13T02:04:28.072Z,31.13
2022-11-13T02:06:57.608Z,31.23
2022-11-13T02:09:30.581Z,32.08
2022-11-13T02:12:08.680Z,30.45
2022-11-13T02:14:38.134Z,29.30
2022-11-13T02:17:08.399Z,29.20
2022-11-13T02:19:38.252Z,28.88
2022-11-13T02:22:13.698Z,31.52
2022-11-13T02:24:45.349Z,30.85
2022-11-13T02:27:36.754Z,29.00
2022-11-13T02:30:25.305Z,26.60
2022-11-13T02:32:54.640Z,27.70
2022-11-13T02:35:37.165Z,29.40
2022-11-13T02:38:05.332Z,27.55
2022-11-13T02:40:33.488Z,26.33
2022-11-13T02:43:00.053Z,25.45
2022-11-13T02:45:26.484Z,27.08
2022-11-13T02:47:52.880Z,27.77
2022-11-13T02:50:19.354Z,30.17
2022-11-13T02:52:45.896Z,27.23
2022-11-13T02:55:12.483Z,26.85
2022-11-13T02:57:38.896Z,27.33
2022-11-13T03:00:09.236Z,25.70
2022-11-13T03:02:39.945Z,25.05
2022-11-13T03:05:14.217Z,26.95
2022-11-13T03:07:41.330Z,27.83
2022-11-13T03:10:09.219Z,28.00
2022-11-13T03:12:36.023Z,30.02
2022-11-13T03:15:02.487Z,29.52
2022-11-13T03:17:31.185Z,27.85
2022-11-13T03:19:57.585Z,28.50
2022-11-13T03:22:24.015Z,29.35
2022-11-13T03:24:50.462Z,31.05
2022-11-13T03:27:16.964Z,27.77
2022-11-13T03:29:43.565Z,27.50
2022-11-13T03:32:09.980Z,27.17
2022-11-13T03:34:36.496Z,27.65
2022-11-13T03:37:03.047Z,26.70
2022-11-13T03:39:29.477Z,27.02
2022-11-13T03:41:55.997Z,26.55
2022-11-13T03:44:22.475Z,26.38
2022-11-13T03:46:48.883Z,26.85
2022-11-13T03:49:15.349Z,26.15
2022-11-13T03:51:41.767Z,26.30
2022-11-13T03:54:08.228Z,24.95
2022-11-13T03:56:34.702Z,24.60
2022-11-13T03:59:01.172Z,25.92
2022-11-13T04:01:27.620Z,26.05
2022-11-13T04:03:54.087Z,26.73
2022-11-13T04:06:21.870Z,25.95
2022-11-13T04:08:48.302Z,24.48
2022-11-13T04:11:14.734Z,23.98
2022-11-13T04:13:41.296Z,24.50
2022-11-13T04:16:10.108Z,25.27
2022-11-13T04:18:36.617Z,23.77
2022-11-13T04:21:05.170Z,24.98
2022-11-13T04:23:32.225Z,25.30
2022-11-13T04:25:59.105Z,26.10
2022-11-13T04:28:25.960Z,26.23
2022-11-13T04:30:55.574Z,25.75
2022-11-13T04:33:22.724Z,23.80
2022-11-13T04:35:49.380Z,25.85
2022-11-13T04:38:16.137Z,24.92
2022-11-13T04:40:42.888Z,24.40
2022-11-13T04:43:09.377Z,26.45
2022-11-13T04:45:36.477Z,25.42
2022-11-13T04:48:03.115Z,24.13
2022-11-13T04:50:29.532Z,25.13
2022-11-13T04:52:55.980Z,25.75
2022-11-13T04:55:22.421Z,24.55
2022-11-13T04:57:51.446Z,25.58
2022-11-13T05:00:18.273Z,26.52
2022-11-13T05:02:44.708Z,23.98
2022-11-13T05:05:11.139Z,23.75
2022-11-13T05:07:37.542Z,20.77
2022-11-13T05:10:04.416Z,22.17
2022-11-13T05:12:30.842Z,21.20
2022-11-13T05:14:57.284Z,21.20
2022-11-13T05:17:23.720Z,21.92
2022-11-13T05:19:50.136Z,21.15
2022-11-13T05:22:16.541Z,21.33
2022-11-13T05:24:42.959Z,21.35
2022-11-13T05:27:14.145Z,20.98
2022-11-13T05:29:43.727Z,25.27
2022-11-13T05:32:10.210Z,22.80
2022-11-13T05:34:36.647Z,22.80
2022-11-13T05:37:04.134Z,21.45
2022-11-13T05:39:30.602Z,20.55
2022-11-13T05:41:57.145Z,21.70
2022-11-13T05:44:23.612Z,22.08
2022-11-13T05:46:50.099Z,21.95
2022-11-13T05:49:16.550Z,19.98
2022-11-13T05:51:42.976Z,20.55
2022-11-13T05:54:09.399Z,19.15
2022-11-13T05:56:36.776Z,20.13
2022-11-13T05:59:04.928Z,19.60
2022-11-13T06:01:39.719Z,19.98
2022-11-13T06:04:07.837Z,20.20
2022-11-13T06:06:34.999Z,20.08
2022-11-13T06:09:03.880Z,19.73
2022-11-13T06:11:31.285Z,24.42
2022-11-13T06:13:59.303Z,24.02
2022-11-13T06:16:28.289Z,21.83
2022-11-13T06:18:57.313Z,23.52
2022-11-13T06:21:26.580Z,20.63
2022-11-13T06:23:53.313Z,20.73
2022-11-13T06:26:21.991Z,19.65
2022-11-13T06:28:48.912Z,19.50
2022-11-13T06:31:23.440Z,20.25
2022-11-13T06:33:52.228Z,20.23
2022-11-13T06:36:30.225Z,20.17
2022-11-13T06:38:56.923Z,20.00
2022-11-13T06:41:26.424Z,18.80
2022-11-13T06:43:52.882Z,18.75
2022-11-13T06:46:21.937Z,19.80
2022-11-13T06:48:48.925Z,20.45
2022-11-13T06:51:24.065Z,21.35
2022-11-13T06:53:51.548Z,34.30
2022-11-13T06:56:18.937Z,34.20
2022-11-13T06:58:45.675Z,26.73
2022-11-13T07:01:21.438Z,20.30
2022-11-13T07:03:48.177Z,20.42
2022-11-13T07:06:18.709Z,20.20
2022-11-13T07:08:46.882Z,22.20
2022-11-13T07:11:18.739Z,21.38
2022-11-13T07:13:50.347Z,21.88
2022-11-13T07:16:18.272Z,22.17
2022-11-13T07:18:57.205Z,20.98
2022-11-13T07:21:23.904Z,21.67
2022-11-13T07:23:50.765Z,25.02
2022-11-13T07:26:17.957Z,25.92
2022-11-13T07:28:45.547Z,27.88
2022-11-13T07:31:13.933Z,28.08
2022-11-13T07:33:42.558Z,35.15
2022-11-13T07:36:10.298Z,23.60
2022-11-13T07:38:39.432Z,23.77
2022-11-13T07:41:07.031Z,21.45
2022-11-13T07:43:34.355Z,23.45
2022-11-13T07:46:01.580Z,21.98
2022-11-13T07:48:31.848Z,23.48
2022-11-13T07:51:04.583Z,22.83
2022-11-13T07:53:31.517Z,24.83
2022-11-13T07:56:01.752Z,25.75
2022-11-13T07:58:37.292Z,22.90
2022-11-13T08:01:06.816Z,31.77
2022-11-13T08:03:33.686Z,31.42
2022-11-13T08:06:05.376Z,30.23
2022-11-13T08:08:32.862Z,28.63
2022-11-13T08:11:03.100Z,27.35
2022-11-13T08:13:33.109Z,23.77
2022-11-13T08:16:02.819Z,24.05
2022-11-13T08:18:36.024Z,22.55
2022-11-13T08:21:04.109Z,21.05
2022-11-13T08:23:37.065Z,20.13
2022-11-13T08:26:06.047Z,20.75
2022-11-13T08:28:33.327Z,19.38
2022-11-13T08:31:00.253Z,20.40
2022-11-13T08:33:30.095Z,19.95
2022-11-13T08:35:58.702Z,18.73
2022-11-13T08:38:27.713Z,20.08
2022-11-13T08:41:05.930Z,17.45
2022-11-13T08:43:35.579Z,13.88
2022-11-13T08:46:02.878Z,13.63
2022-11-13T08:48:29.642Z,12.50
2022-11-13T08:50:58.744Z,12.57
2022-11-13T08:53:26.403Z,12.45
2022-11-13T08:55:53.268Z,12.32
2022-11-13T08:58:20.414Z,14.32
2022-11-13T09:00:52.293Z,13.45
2022-11-13T09:03:22.093Z,12.68
2022-11-13T09:05:53.450Z,13.85
2022-11-13T09:10:47.581Z,12.05
2022-11-13T09:13:19.716Z,12.60
2022-11-13T09:15:46.395Z,11.55
2022-11-13T09:18:13.465Z,11.82
2022-11-13T09:20:40.294Z,12.20
2022-11-13T09:23:12.660Z,10.82
2022-11-13T09:25:39.227Z,11.65
2022-11-13T09:28:07.361Z,10.98
2022-11-13T09:30:38.695Z,10.45
2022-11-13T09:35:40.510Z,18.67
2022-11-13T09:38:11.136Z,17.15
2022-11-13T09:40:59.705Z,14.57
2022-11-13T09:43:38.772Z,12.23
2022-11-13T09:46:43.980Z,15.35
2022-11-13T09:49:24.144Z,12.75
2022-11-13T09:52:10.984Z,10.02
2022-11-13T09:54:39.213Z,9.30
2022-11-13T09:57:26.242Z,7.85
2022-11-13T10:00:06.161Z,9.75
2022-11-13T10:02:45.010Z,8.32
2022-11-13T10:05:39.434Z,8.90
2022-11-13T10:08:36.409Z,9.10
2022-11-13T10:11:08.808Z,8.70
2022-11-13T10:13:44.948Z,8.85
2022-11-13T10:16:34.813Z,7.68
2022-11-13T10:19:30.648Z,8.98
2022-11-13T10:22:31.747Z,9.07
2022-11-13T10:25:09.321Z,8.60
2022-11-13T10:27:35.798Z,11.25
2022-11-13T10:30:03.130Z,9.82
2022-11-13T10:32:32.514Z,9.30
2022-11-13T10:35:04.695Z,8.48
2022-11-13T10:37:53.636Z,8.18
2022-11-13T10:40:25.486Z,9.02
2022-11-13T10:42:52.175Z,9.32
2022-11-13T10:45:20.770Z,10.88
2022-11-13T10:48:04.213Z,8.38
2022-11-13T10:50:32.909Z,7.93
2022-11-13T10:52:59.873Z,8.52
2022-11-13T10:55:38.340Z,7.80
2022-11-13T10:58:16.408Z,8.15
2022-11-13T11:00:47.218Z,8.00
2022-11-13T11:03:15.932Z,8.15
2022-11-13T11:05:56.455Z,7.45
2022-11-13T11:08:35.169Z,8.67
2022-11-13T11:11:33.407Z,7.75
2022-11-13T11:14:18.652Z,7.88
2022-11-13T11:16:47.666Z,7.82
2022-11-13T11:19:15.558Z,8.20
2022-11-13T11:21:43.500Z,7.70
2022-11-13T11:24:24.372Z,7.70
2022-11-13T11:27:16.080Z,6.97
2022-11-13T11:29:55.722Z,7.97
2022-11-13T11:32:34.572Z,8.55
2022-11-13T11:35:16.474Z,8.75
2022-11-13T11:38:10.235Z,7.88
2022-11-13T11:40:42.264Z,8.55
2022-11-13T11:43:16.070Z,8.98
2022-11-13T11:45:44.708Z,19.15
2022-11-13T11:48:17.291Z,9.05
2022-11-13T11:51:08.546Z,8.18
2022-11-13T11:53:47.159Z,8.82
2022-11-13T11:56:26.097Z,8.15
2022-11-13T11:59:01.915Z,8.60
2022-11-13T12:01:56.099Z,7.63
2022-11-13T12:04:31.829Z,8.38
2022-11-13T12:07:51.969Z,7.45
2022-11-13T12:10:24.399Z,7.65
2022-11-13T12:13:13.062Z,7.78
2022-11-13T12:15:42.227Z,6.30
2022-11-13T12:18:24.214Z,6.82
2022-11-13T12:21:04.244Z,7.10
2022-11-13T12:24:08.222Z,8.48
2022-11-13T12:26:50.359Z,6.07
2022-11-13T12:29:19.718Z,7.38
2022-11-13T12:32:08.002Z,6.60
2022-11-13T12:34:49.865Z,6.32
2022-11-13T12:37:38.780Z,6.40
2022-11-13T12:40:23.133Z,5.85
2022-11-13T12:43:00.510Z,7.85
2022-11-13T12:45:39.341Z,7.63
2022-11-13T12:48:09.727Z,7.80
2022-11-13T12:50:36.400Z,6.43
2022-11-13T12:53:09.726Z,7.18
2022-11-13T12:55:41.015Z,8.35
2022-11-13T13:00:56.901Z,5.60
2022-11-13T13:03:48.126Z,6.38
2022-11-13T13:06:39.559Z,6.97
2022-11-13T13:09:37.193Z,5.45
2022-11-13T13:12:39.482Z,6.35
2022-11-13T13:15:36.771Z,6.97
2022-11-13T13:18:04.542Z,6.70
2022-11-13T13:20:34.950Z,6.20
2022-11-13T13:23:05.931Z,7.07
2022-11-13T13:25:36.070Z,7.53
2022-11-13T13:28:25.532Z,8.23
2022-11-13T13:30:52.021Z,6.38
2022-11-13T13:33:59.658Z,7.28
2022-11-13T13:36:37.918Z,7.43
2022-11-13T13:39:28.107Z,5.80
2022-11-13T13:42:27.393Z,5.60
2022-11-13T13:45:04.287Z,8.07
2022-11-13T13:47:38.858Z,9.95
2022-11-13T13:50:17.088Z,7.13
2022-11-13T13:52:44.392Z,17.40
2022-11-13T13:55:19.036Z,14.75
2022-11-13T13:57:46.443Z,13.27
2022-11-13T14:00:14.156Z,10.23
2022-11-13T14:02:51.871Z,17.08
2022-11-13T14:05:29.312Z,12.38
2022-11-13T14:07:59.860Z,9.35
2022-11-13T14:10:28.448Z,10.18
2022-11-13T14:12:56.360Z,10.43
2022-11-13T14:15:22.764Z,11.52
2022-11-13T14:17:49.320Z,13.32
2022-11-13T14:20:16.834Z,12.45
2022-11-13T14:22:45.915Z,10.25
2022-11-13T14:25:23.934Z,9.85
2022-11-13T14:27:51.958Z,20.15
2022-11-13T14:30:36.413Z,31.15
2022-11-13T14:33:04.488Z,23.65
2022-11-13T14:35:31.348Z,25.95
2022-11-13T14:37:58.509Z,16.25
2022-11-13T14:40:30.940Z,13.82
2022-11-13T14:43:05.659Z,11.00
2022-11-13T14:45:33.129Z,12.70
2022-11-13T14:48:17.335Z,10.82
2022-11-13T14:50:54.996Z,13.65
2022-11-13T14:53:33.981Z,13.15
2022-11-13T14:56:04.811Z,13.20
2022-11-13T14:58:35.885Z,14.90
2022-11-13T15:01:15.523Z,16.75
2022-11-13T15:03:43.702Z,14.32
2022-11-13T15:06:20.395Z,13.80
2022-11-13T15:08:47.895Z,12.68
2022-11-13T15:11:19.807Z,15.25
2022-11-13T15:13:46.693Z,12.15
2022-11-13T15:16:26.396Z,12.65
2022-11-13T15:19:03.318Z,12.88
2022-11-13T15:21:30.680Z,12.27
2022-11-13T15:23:57.568Z,11.75
2022-11-13T15:26:24.463Z,13.32
2022-11-13T15:28:50.959Z,15.07
2022-11-13T15:31:24.548Z,11.15
2022-11-13T15:33:51.044Z,16.95
2022-11-13T15:36:17.526Z,13.68
2022-11-13T15:38:43.966Z,12.77
2022-11-13T15:41:16.178Z,15.05
2022-11-13T15:43:45.639Z,16.40
2022-11-13T15:46:15.626Z,16.88
2022-11-13T15:48:42.297Z,16.48
2022-11-13T15:51:31.976Z,17.58
2022-11-13T15:54:04.968Z,17.55
2022-11-13T15:56:31.656Z,18.88
2022-11-13T15:58:58.222Z,19.08
2022-11-13T16:01:24.735Z,21.25
2022-11-13T16:03:51.697Z,21.80
2022-11-13T16:06:23.506Z,19.40
2022-11-13T16:08:50.148Z,18.83
2022-11-13T16:11:18.493Z,19.90
2022-11-13T16:13:45.728Z,19.88
2022-11-13T16:16:18.370Z,18.55
2022-11-13T16:18:45.130Z,21.90
2022-11-13T16:21:13.571Z,22.30
2022-11-13T16:23:40.469Z,22.63
2022-11-13T16:26:14.595Z,26.27
2022-11-13T16:29:07.147Z,24.05
2022-11-13T16:31:27.736Z,24.27
2022-11-13T16:33:54.357Z,25.70
2022-11-13T16:36:22.702Z,28.92
2022-11-13T16:38:49.211Z,26.85
2022-11-13T16:41:16.761Z,32.30
2022-11-13T16:43:44.441Z,40.25
2022-11-13T16:46:30.085Z,50.42
2022-11-13T16:48:56.669Z,45.33
2022-11-13T16:51:23.537Z,42.63
2022-11-13T16:53:52.311Z,42.75
2022-11-13T16:56:29.276Z,43.50
2022-11-13T16:58:56.632Z,39.95
2022-11-13T17:01:23.887Z,42.88
2022-11-13T17:03:51.684Z,40.20
2022-11-13T17:06:27.287Z,36.25
2022-11-13T17:08:57.200Z,35.40
2022-11-13T17:11:25.481Z,37.15
2022-11-13T17:13:55.976Z,35.78
2022-11-13T17:16:24.154Z,34.00
2022-11-13T17:18:53.264Z,30.38
2022-11-13T17:21:25.037Z,31.00
2022-11-13T17:23:59.122Z,31.45
2022-11-13T17:26:26.572Z,32.00
2022-11-13T17:28:56.231Z,33.72
2022-11-13T17:31:22.902Z,42.05
2022-11-13T17:34:16.078Z,38.50
2022-11-13T17:36:42.655Z,41.00
2022-11-13T17:39:09.088Z,40.65
2022-11-13T17:41:37.152Z,44.30
2022-11-13T17:44:04.290Z,41.40
2022-11-13T17:46:30.720Z,41.17
2022-11-13T17:48:57.143Z,42.55
2022-11-13T17:51:23.749Z,36.42
2022-11-13T17:53:50.213Z,22.45
2022-11-13T17:56:17.813Z,25.63
2022-11-13T17:58:45.203Z,20.52
2022-11-13T18:01:22.220Z,23.02
2022-11-13T18:03:55.035Z,24.70
2022-11-13T18:06:22.512Z,25.73
2022-11-13T18:08:49.104Z,27.92
2022-11-13T18:11:16.616Z,26.73
2022-11-13T18:13:43.910Z,27.77
2022-11-13T18:16:31.521Z,27.55
2022-11-13T18:18:59.181Z,25.25
2022-11-13T18:21:29.110Z,23.95
2022-11-13T18:23:58.064Z,26.02
2022-11-13T18:30:58.407Z,24.95
2022-11-13T18:33:24.865Z,19.80
2022-11-13T18:35:55.695Z,20.63
2022-11-13T18:38:22.136Z,17.50
2022-11-13T18:40:48.555Z,17.30
2022-11-13T18:43:15.287Z,17.67
2022-11-13T18:45:41.727Z,18.23
2022-11-13T18:48:08.135Z,16.30
2022-11-13T18:50:34.552Z,18.02
2022-11-13T18:53:00.955Z,20.02
2022-11-13T18:55:27.371Z,19.75
2022-11-13T18:57:53.814Z,22.70
2022-11-13T19:00:20.237Z,25.38
2022-11-13T19:02:51.101Z,24.55
2022-11-13T19:05:17.574Z,25.67
2022-11-13T19:07:44.008Z,24.40
2022-11-13T19:10:10.519Z,26.52
2022-11-13T19:12:36.927Z,31.75
2022-11-13T19:15:05.514Z,30.73
2022-11-13T19:17:31.968Z,28.20
2022-11-13T19:19:58.464Z,24.00
2022-11-13T19:22:24.872Z,21.70
2022-11-13T19:24:51.328Z,23.40
2022-11-13T19:27:17.791Z,23.38
2022-11-13T19:29:44.206Z,22.20
2022-11-13T19:32:10.626Z,21.60
2022-11-13T19:34:37.955Z,21.38
2022-11-13T19:37:06.701Z,20.83
2022-11-13T19:39:33.145Z,23.42
2022-11-13T19:41:59.554Z,21.33
2022-11-13T19:44:27.020Z,22.48
2022-11-13T19:46:53.541Z,23.27
2022-11-13T19:49:19.943Z,23.52
2022-11-13T19:51:46.376Z,23.17
2022-11-13T19:54:12.849Z,22.73
2022-11-13T19:56:39.323Z,23.65
2022-11-13T19:59:09.502Z,24.33
2022-11-13T20:01:36.128Z,26.17
2022-11-13T20:04:04.166Z,25.73
2022-11-13T20:06:32.627Z,30.13
2022-11-13T20:09:00.472Z,32.70
2022-11-13T20:11:27.343Z,31.48
2022-11-13T20:13:55.655Z,28.92
2022-11-13T20:16:23.438Z,32.80
2022-11-13T20:18:50.842Z,31.63
2022-11-13T20:21:28.559Z,27.25
2022-11-13T20:23:56.790Z,27.88
2022-11-13T20:26:23.715Z,26.35
2022-11-13T20:28:50.192Z,26.77
2022-11-13T20:31:20.073Z,25.52
2022-11-13T20:33:47.397Z,30.80
2022-11-13T20:36:15.111Z,36.63
2022-11-13T20:38:44.227Z,34.78
2022-11-13T20:41:11.604Z,29.70
2022-11-13T20:43:38.490Z,35.53
2022-11-13T20:46:07.482Z,49.50
2022-11-13T20:48:34.415Z,48.97
2022-11-13T20:51:20.884Z,36.38
2022-11-13T20:53:48.026Z,31.90
2022-11-13T20:56:14.907Z,27.90
2022-11-13T20:58:41.996Z,25.95
2022-11-13T21:01:13.708Z,26.85
2022-11-13T21:03:42.278Z,30.15
2022-11-13T21:06:10.476Z,27.65
2022-11-13T21:08:37.359Z,32.28
2022-11-13T21:11:06.031Z,32.20
2022-11-13T21:13:32.653Z,27.63
2022-11-13T21:15:59.143Z,26.27
2022-11-13T21:18:25.692Z,28.27
2022-11-13T21:20:52.354Z,29.40
2022-11-13T21:23:18.849Z,28.08
2022-11-13T21:25:45.280Z,26.52
2022-11-13T21:28:11.659Z,25.77
2022-11-13T21:30:38.077Z,25.20
2022-11-13T21:33:04.506Z,25.73
2022-11-13T21:35:31.037Z,29.65
2022-11-13T21:37:57.480Z,26.27
2022-11-13T21:40:23.929Z,26.17
2022-11-13T21:42:50.339Z,24.67
2022-11-13T21:45:16.782Z,25.05
2022-11-13T21:47:43.397Z,22.70
2022-11-13T21:50:10.311Z,25.88
2022-11-13T21:52:36.779Z,25.17
2022-11-13T21:55:03.561Z,27.80
2022-11-13T21:57:30.031Z,27.77
2022-11-13T21:59:56.441Z,27.10
2022-11-13T22:02:22.920Z,26.73
2022-11-13T22:04:50.820Z,25.10
2022-11-13T22:07:17.307Z,26.75
2022-11-13T22:09:43.940Z,28.63
2022-11-13T22:12:10.755Z,26.05
2022-11-13T22:14:37.218Z,28.33
2022-11-13T22:17:03.727Z,26.40
2022-11-13T22:19:34.734Z,27.75
2022-11-13T22:22:02.444Z,26.67
2022-11-13T22:24:29.559Z,27.52
2022-11-13T22:26:55.984Z,26.25
2022-11-13T22:29:22.397Z,25.80
2022-11-13T22:31:48.863Z,26.05
2022-11-13T22:34:15.381Z,26.02
2022-11-13T22:36:41.847Z,27.05
2022-11-13T22:39:08.367Z,27.35
2022-11-13T22:41:36.286Z,27.17
2022-11-13T22:44:07.895Z,26.52
2022-11-13T22:46:36.056Z,30.05
2022-11-13T22:49:04.755Z,28.70
2022-11-13T22:51:41.012Z,25.90
2022-11-13T22:54:10.211Z,27.08
2022-11-13T22:56:38.214Z,27.83
2022-11-13T22:59:06.915Z,26.40
2022-11-13T23:01:35.167Z,26.95
2022-11-13T23:04:04.333Z,26.05
2022-11-13T23:06:32.699Z,28.25
2022-11-13T23:09:00.215Z,25.90
2022-11-13T23:11:30.298Z,29.15
2022-11-13T23:14:00.181Z,29.27
2022-11-13T23:16:27.647Z,28.42
2022-11-13T23:18:56.386Z,28.88
2022-11-13T23:21:25.075Z,27.27
2022-11-13T23:23:51.980Z,29.83
2022-11-13T23:26:18.970Z,29.08
2022-11-13T23:28:45.638Z,28.30
2022-11-13T23:31:12.656Z,30.65
2022-11-13T23:33:40.193Z,28.90
2022-11-13T23:36:08.762Z,29.15
2022-11-13T23:38:35.479Z,29.70
2022-11-13T23:41:01.997Z,28.45
2022-11-13T23:43:54.209Z,27.63
2022-11-13T23:46:16.725Z,29.13
2022-11-13T23:48:43.165Z,28.98
2022-11-13T23:51:09.865Z,27.40
2022-11-13T23:53:37.300Z,27.08
2022-11-13T23:56:04.037Z,27.25
2022-11-13T23:58:32.311Z,25.77
